Time;durP1;ratioP1;P1;durP2;ratioP2;P2;SDS_P1;SDS_P2;PMS_P1;PMS_P2;Temp;Humidity;BMP_temperature;BMP_pressure;BME280_temperature;BME280_humidity;BME280_pressure;Samples;Min_cycle;Max_cycle;Signal;HPM_P1;HPM_P2
2021/10/11 00:00:39;;;;;;;14.48;12.77;;;;;;;9.97;64.90;101648.41;5018773;28;20112;-42
2021/10/11 00:03:04;;;;;;;14.85;13.25;;;;;;;9.98;64.66;101654.59;5020817;28;20487;-41
2021/10/11 00:05:30;;;;;;;15.98;13.73;;;;;;;9.98;64.73;101662.50;5023828;28;20113;-41
2021/10/11 00:07:55;;;;;;;13.75;12.23;;;;;;;9.97;64.71;101660.75;5027535;28;20507;-40
2021/10/11 00:10:20;;;;;;;14.77;12.98;;;;;;;9.98;64.56;101659.84;5021321;28;20591;-42
2021/10/11 00:12:51;;;;;;;14.13;12.63;;;;;;;9.98;64.62;101654.59;5024168;28;20108;-42
2021/10/11 00:15:17;;;;;;;15.23;13.20;;;;;;;9.96;64.65;101656.31;5021142;28;20050;-43
2021/10/11 00:17:43;;;;;;;14.90;12.30;;;;;;;9.97;64.54;101655.47;5023160;28;20025;-42
2021/10/11 00:20:09;;;;;;;13.85;12.40;;;;;;;9.96;64.63;101654.56;5024197;28;20025;-42
2021/10/11 00:22:35;;;;;;;15.63;13.65;;;;;;;9.95;64.52;101644.00;5020051;28;20075;-42
2021/10/11 00:25:00;;;;;;;16.05;13.40;;;;;;;9.96;64.47;101648.41;5021535;28;20030;-42
2021/10/11 00:27:25;;;;;;;14.57;12.75;;;;;;;9.94;64.36;101658.94;5020199;28;20126;-42
2021/10/11 00:29:51;;;;;;;14.43;12.93;;;;;;;9.95;64.60;101652.81;5020900;28;20037;-42
2021/10/11 00:32:16;;;;;;;17.60;13.13;;;;;;;9.94;64.59;101655.44;5023163;28;20025;-42
2021/10/11 00:34:43;;;;;;;15.85;13.48;;;;;;;9.94;64.54;101652.78;5017926;28;20030;-42
2021/10/11 00:37:08;;;;;;;15.30;12.30;;;;;;;9.94;64.61;101652.78;5023770;28;20026;-42
2021/10/11 00:39:33;;;;;;;14.57;13.05;;;;;;;9.93;64.60;101645.72;5021951;28;20767;-42
2021/10/11 00:41:59;;;;;;;16.63;13.32;;;;;;;9.92;64.54;101647.50;5017464;28;20079;-42
2021/10/11 00:44:24;;;;;;;13.07;11.75;;;;;;;9.92;64.37;101646.63;5009169;28;20038;-42
2021/10/11 00:46:49;;;;;;;14.88;12.90;;;;;;;9.91;64.49;101650.13;5019994;28;20107;-42
2021/10/11 00:49:15;;;;;;;12.88;11.07;;;;;;;9.91;64.47;101651.03;5022328;28;20037;-42
2021/10/11 00:51:40;;;;;;;15.43;12.48;;;;;;;9.90;64.41;101651.00;5020508;28;20101;-42
2021/10/11 00:54:05;;;;;;;15.02;12.65;;;;;;;9.90;64.40;101646.59;5018316;28;20105;-42
2021/10/11 00:56:31;;;;;;;14.50;12.85;;;;;;;9.90;64.34;101640.47;5024141;28;20022;-42
2021/10/11 00:58:56;;;;;;;16.45;13.18;;;;;;;9.89;64.62;101634.28;5020119;28;20113;-42
2021/10/11 01:01:22;;;;;;;13.05;11.65;;;;;;;9.88;64.43;101620.22;5014822;28;20030;-42
2021/10/11 01:03:47;;;;;;;15.57;12.98;;;;;;;9.90;64.54;101624.66;5018767;28;20025;-42
2021/10/11 01:06:12;;;;;;;15.40;12.23;;;;;;;9.89;64.33;101629.03;5020895;28;20041;-42
2021/10/11 01:08:39;;;;;;;16.27;13.15;;;;;;;9.88;64.63;101632.53;5018685;28;20036;-42
2021/10/11 01:11:05;;;;;;;14.05;12.57;;;;;;;9.87;64.28;101631.66;5018351;28;20457;-42
2021/10/11 01:13:30;;;;;;;15.07;13.52;;;;;;;9.85;64.27;101617.59;5022443;28;20021;-42
2021/10/11 01:15:55;;;;;;;15.40;13.13;;;;;;;9.87;64.28;101626.38;5018404;28;20022;-42
2021/10/11 01:18:21;;;;;;;13.93;12.40;;;;;;;9.86;64.42;101623.72;5022957;28;20033;-42
2021/10/11 01:20:46;;;;;;;15.05;12.73;;;;;;;9.85;64.17;101614.97;5018218;28;20506;-42
2021/10/11 01:23:11;;;;;;;16.20;13.50;;;;;;;9.85;64.21;101611.44;5018568;28;20044;-43
2021/10/11 01:25:37;;;;;;;16.02;12.18;;;;;;;9.84;64.47;101613.16;5028544;28;20103;-43
2021/10/11 01:28:03;;;;;;;15.05;11.95;;;;;;;9.84;64.42;101609.66;5021129;28;20084;-43
2021/10/11 01:30:28;;;;;;;16.90;12.85;;;;;;;9.84;64.28;101610.53;5021198;28;20037;-43
2021/10/11 01:32:54;;;;;;;16.38;12.85;;;;;;;9.81;64.39;101600.00;5021274;28;20475;-43
2021/10/11 01:35:19;;;;;;;14.30;12.50;;;;;;;9.82;64.37;101588.56;5016709;28;20527;-43
2021/10/11 01:37:47;;;;;;;15.10;12.43;;;;;;;9.82;64.48;101585.03;5022826;28;20155;-43
2021/10/11 01:40:13;;;;;;;14.95;12.23;;;;;;;9.82;64.03;101585.94;5020488;28;20559;-42
2021/10/11 01:42:38;;;;;;;17.38;12.48;;;;;;;9.81;64.06;101578.91;5019268;28;20021;-44
2021/10/11 01:45:05;;;;;;;16.73;13.13;;;;;;;9.82;64.19;101574.50;5016155;28;20021;-43
2021/10/11 01:47:31;;;;;;;16.75;12.23;;;;;;;9.81;64.20;101578.91;5020242;28;20018;-43
2021/10/11 01:49:56;;;;;;;16.92;12.82;;;;;;;9.81;64.39;101581.53;5017880;28;20072;-43
2021/10/11 01:52:24;;;;;;;13.95;12.10;;;;;;;9.79;64.36;101579.75;5022026;28;20021;-43
2021/10/11 01:54:49;;;;;;;16.08;12.35;;;;;;;9.77;64.25;101576.22;5021845;28;20480;-43
2021/10/11 01:57:16;;;;;;;14.75;12.50;;;;;;;9.79;64.03;101574.47;5017717;28;20021;-43
2021/10/11 01:59:41;;;;;;;15.38;12.77;;;;;;;9.78;64.34;101568.34;5018882;28;20022;-43
2021/10/11 02:02:06;;;;;;;15.10;12.00;;;;;;;9.78;64.11;101562.19;5019644;28;20076;-43
2021/10/11 02:04:32;;;;;;;17.60;11.98;;;;;;;9.75;64.01;101553.41;5023349;28;20057;-43
2021/10/11 02:06:57;;;;;;;14.07;12.25;;;;;;;9.77;63.90;101545.47;5018227;28;20033;-43
2021/10/11 02:09:23;;;;;;;14.27;11.50;;;;;;;9.77;64.27;101542.84;5015641;28;20108;-42
2021/10/11 02:11:48;;;;;;;13.38;11.88;;;;;;;9.74;64.40;101529.66;5019903;28;20025;-42
2021/10/11 02:14:14;;;;;;;13.98;11.65;;;;;;;9.76;64.04;101527.91;5019068;28;20037;-43
2021/10/11 02:16:39;;;;;;;15.05;11.70;;;;;;;9.77;64.31;101539.34;5022368;28;20024;-43
2021/10/11 02:19:04;;;;;;;13.38;11.82;;;;;;;9.76;64.18;101543.72;5019318;28;20544;-43
2021/10/11 02:21:30;;;;;;;13.82;11.38;;;;;;;9.75;64.10;101536.69;5019852;28;20721;-43
2021/10/11 02:23:55;;;;;;;16.42;13.20;;;;;;;9.74;64.07;101532.31;5016017;28;20018;-43
2021/10/11 02:26:22;;;;;;;14.10;12.52;;;;;;;9.73;64.19;101527.88;5018900;28;20040;-43
2021/10/11 02:28:47;;;;;;;13.95;12.30;;;;;;;9.74;64.30;101534.94;5025929;28;20052;-43
2021/10/11 02:31:13;;;;;;;14.68;12.02;;;;;;;9.74;64.20;101534.94;5015689;28;20069;-42
2021/10/11 02:33:38;;;;;;;14.93;12.18;;;;;;;9.74;64.10;101532.31;5017896;28;20025;-42
2021/10/11 02:36:04;;;;;;;13.05;11.15;;;;;;;9.73;64.30;101530.50;5017426;28;20396;-42
2021/10/11 02:38:29;;;;;;;14.73;11.63;;;;;;;9.72;64.35;101527.03;5020348;28;20037;-42
2021/10/11 02:40:54;;;;;;;15.25;11.48;;;;;;;9.72;64.10;101531.41;5020317;28;20038;-42
2021/10/11 02:43:19;;;;;;;13.18;11.77;;;;;;;9.71;64.26;101534.91;5018142;28;20022;-42
2021/10/11 02:45:45;;;;;;;13.85;11.65;;;;;;;9.68;64.16;101522.59;5021333;28;20028;-42
2021/10/11 02:48:10;;;;;;;15.88;12.20;;;;;;;9.71;64.14;101529.63;5017567;28;20028;-42
2021/10/11 02:50:35;;;;;;;13.50;11.52;;;;;;;9.70;64.05;101525.25;5018672;28;20091;-43
2021/10/11 02:53:01;;;;;;;14.27;12.10;;;;;;;9.70;64.23;101534.00;5019133;28;20466;-42
2021/10/11 02:55:26;;;;;;;12.80;11.50;;;;;;;9.69;64.15;101527.00;5023901;28;20427;-42
2021/10/11 02:57:51;;;;;;;13.55;11.80;;;;;;;9.69;64.16;101526.09;5023365;28;20030;-42
2021/10/11 03:00:16;;;;;;;15.30;12.50;;;;;;;9.65;64.19;101519.94;5025072;28;20030;-42
2021/10/11 03:02:42;;;;;;;14.23;11.25;;;;;;;9.68;64.27;101519.06;5024290;28;20021;-41
2021/10/11 03:05:07;;;;;;;14.98;10.82;;;;;;;9.67;64.08;101527.84;5020408;28;20022;-42
2021/10/11 03:07:32;;;;;;;13.27;11.15;;;;;;;9.68;64.15;101524.34;5022781;28;20543;-41
2021/10/11 03:09:58;;;;;;;13.82;11.75;;;;;;;9.68;64.31;101513.81;5029760;28;20036;-41
2021/10/11 03:12:23;;;;;;;14.40;11.18;;;;;;;9.66;64.23;101511.16;5027625;28;20026;-41
2021/10/11 03:14:49;;;;;;;13.25;11.95;;;;;;;9.66;64.22;101505.00;5023483;28;20416;-41
2021/10/11 03:17:15;;;;;;;13.82;11.60;;;;;;;9.62;64.20;101489.19;5022130;28;20056;-41
2021/10/11 03:19:40;;;;;;;12.88;10.55;;;;;;;9.66;64.21;101489.19;5020083;28;20532;-41
2021/10/11 03:22:05;;;;;;;13.25;11.07;;;;;;;9.65;64.22;101504.13;5023845;28;20036;-41
2021/10/11 03:24:31;;;;;;;13.88;10.80;;;;;;;9.65;64.32;101504.13;5023221;28;20063;-41
2021/10/11 03:26:56;;;;;;;13.98;11.02;;;;;;;9.63;64.14;101506.75;5021370;28;20034;-42
2021/10/11 03:29:21;;;;;;;14.02;11.02;;;;;;;9.63;64.24;101506.75;5022093;28;20068;-42
2021/10/11 03:31:47;;;;;;;13.43;11.80;;;;;;;9.62;64.12;101499.72;5022897;28;20679;-42
2021/10/11 03:34:12;;;;;;;14.13;11.35;;;;;;;9.63;64.03;101497.94;5023791;28;20041;-42
2021/10/11 03:36:38;;;;;;;11.98;10.82;;;;;;;9.61;64.28;101481.28;5024359;28;20032;-42
2021/10/11 03:39:05;;;;;;;12.30;10.73;;;;;;;9.61;64.24;101489.19;5020616;28;20097;-42
2021/10/11 03:41:30;;;;;;;11.05;9.95;;;;;;;9.61;64.08;101491.81;5024540;28;20444;-43
2021/10/11 03:43:55;;;;;;;13.18;11.35;;;;;;;9.60;64.06;101496.19;5020189;28;20013;-42
2021/10/11 03:46:21;;;;;;;12.45;10.98;;;;;;;9.60;64.31;101496.19;5026208;28;20029;-42
2021/10/11 03:48:46;;;;;;;12.55;10.85;;;;;;;9.60;64.09;101501.44;5020871;28;20480;-42
2021/10/11 03:51:11;;;;;;;12.98;10.90;;;;;;;9.59;64.16;101502.31;5021744;28;20017;-42
2021/10/11 03:53:38;;;;;;;12.60;11.20;;;;;;;9.58;64.22;101492.66;5025333;28;20030;-42
2021/10/11 03:56:03;;;;;;;12.52;10.68;;;;;;;9.59;64.20;101499.69;5026811;28;20037;-42
2021/10/11 03:58:28;;;;;;;11.93;10.07;;;;;;;9.59;64.17;101499.69;5021245;28;20036;-42
2021/10/11 04:00:54;;;;;;;12.05;10.38;;;;;;;9.57;63.88;101498.78;5021923;28;20120;-42
2021/10/11 04:03:19;;;;;;;12.48;10.70;;;;;;;9.58;64.33;101492.66;5020881;28;20026;-42
2021/10/11 04:05:44;;;;;;;12.57;10.07;;;;;;;9.56;64.31;101502.28;5026571;28;20031;-42
2021/10/11 04:08:14;;;;;;;13.65;11.43;;;;;;;9.57;64.31;101500.56;5022897;28;20038;-43
2021/10/11 04:10:50;;;;;;;12.63;11.18;;;;;;;9.55;64.24;101492.63;5023591;28;20025;-45
2021/10/11 04:13:20;;;;;;;12.20;10.57;;;;;;;9.56;64.33;101491.75;5023812;28;20531;-43
2021/10/11 04:15:46;;;;;;;11.95;10.60;;;;;;;9.56;64.14;101504.03;5027731;28;20021;-43
2021/10/11 04:18:11;;;;;;;12.02;10.73;;;;;;;9.55;64.32;101503.19;5022745;28;20454;-41
2021/10/11 04:20:36;;;;;;;11.60;10.23;;;;;;;9.55;64.12;101503.19;5026011;28;20451;-43
2021/10/11 04:23:02;;;;;;;11.30;9.95;;;;;;;9.54;64.43;101495.25;5021857;28;20424;-42
2021/10/11 04:25:27;;;;;;;13.93;9.93;;;;;;;9.53;64.16;101489.09;5016413;28;20091;-43
2021/10/11 04:27:52;;;;;;;12.75;11.02;;;;;;;9.52;64.38;101489.09;5022824;28;20079;-42
2021/10/11 04:30:17;;;;;;;12.50;10.70;;;;;;;9.53;64.30;101486.47;5019988;28;20022;-42
2021/10/11 04:32:43;;;;;;;12.32;10.98;;;;;;;9.52;64.22;101491.72;5021267;28;20449;-42
2021/10/11 04:35:08;;;;;;;11.55;10.43;;;;;;;9.51;64.31;101485.59;5022171;28;20515;-42
2021/10/11 04:37:33;;;;;;;13.48;10.65;;;;;;;9.52;64.29;101484.72;5020545;28;20037;-42
2021/10/11 04:39:59;;;;;;;11.23;10.02;;;;;;;9.50;64.22;101489.06;5021964;28;20487;-42
2021/10/11 04:42:24;;;;;;;14.95;10.70;;;;;;;9.50;64.44;101489.97;5021136;28;20491;-42
2021/10/11 04:44:49;;;;;;;12.57;10.07;;;;;;;9.50;64.41;101487.31;5022415;28;20060;-42
2021/10/11 04:47:15;;;;;;;13.18;10.25;;;;;;;9.51;64.23;101493.50;5016247;28;20060;-42
2021/10/11 04:49:40;;;;;;;11.95;10.52;;;;;;;9.49;64.25;101484.69;5001884;28;20069;-42
2021/10/11 04:52:05;;;;;;;12.63;9.77;;;;;;;9.49;64.18;101493.47;5023495;28;20106;-42
2021/10/11 04:54:30;;;;;;;13.63;10.45;;;;;;;9.49;64.24;101492.56;5021844;28;20156;-42
2021/10/11 04:56:56;;;;;;;11.07;9.98;;;;;;;9.49;64.38;101492.56;5019657;28;20030;-42
2021/10/11 04:59:21;;;;;;;11.32;9.48;;;;;;;9.48;64.31;101496.94;5019491;28;20026;-42
2021/10/11 05:01:47;;;;;;;11.43;10.32;;;;;;;9.47;64.40;101496.97;5018922;28;20476;-42
2021/10/11 05:04:12;;;;;;;13.48;9.98;;;;;;;9.48;64.11;101493.47;5020123;28;20480;-42
2021/10/11 05:06:37;;;;;;;12.68;10.10;;;;;;;9.48;64.60;101490.81;5022183;28;20430;-42
2021/10/11 05:09:03;;;;;;;12.65;10.15;;;;;;;9.47;64.17;101486.44;5016947;28;20037;-42
2021/10/11 05:11:29;;;;;;;13.52;10.48;;;;;;;9.47;64.43;101491.69;5024274;28;20039;-42
2021/10/11 05:13:54;;;;;;;10.38;9.27;;;;;;;9.45;64.48;101486.41;5021090;28;20087;-42
2021/10/11 05:16:20;;;;;;;12.52;10.40;;;;;;;9.47;64.52;101486.44;5023075;28;20045;-42
2021/10/11 05:18:45;;;;;;;13.07;10.57;;;;;;;9.45;64.31;101490.78;5020096;28;20088;-42
2021/10/11 05:21:10;;;;;;;12.02;10.15;;;;;;;9.46;64.31;101492.53;5017084;28;20421;-42
2021/10/11 05:23:36;;;;;;;12.63;10.30;;;;;;;9.46;64.37;101489.91;5019905;28;20060;-42
2021/10/11 05:26:01;;;;;;;12.27;10.52;;;;;;;9.43;64.57;101482.88;5016391;28;20395;-42
2021/10/11 05:28:26;;;;;;;12.73;10.35;;;;;;;9.43;64.53;101476.72;5018474;28;20037;-42
2021/10/11 05:30:52;;;;;;;11.10;9.52;;;;;;;9.43;64.33;101484.59;5019826;28;20021;-42
2021/10/11 05:33:19;;;;;;;11.85;9.90;;;;;;;9.42;64.33;101475.84;5020158;28;20450;-42
2021/10/11 05:35:45;;;;;;;13.45;10.65;;;;;;;9.43;64.46;101481.97;5019814;28;20564;-42
2021/10/11 05:38:10;;;;;;;11.90;10.10;;;;;;;9.43;64.42;101487.25;5006619;28;20033;-42
2021/10/11 05:40:36;;;;;;;10.98;9.70;;;;;;;9.42;64.60;101477.59;5021137;28;20068;-42
2021/10/11 05:43:01;;;;;;;11.35;9.98;;;;;;;9.43;64.11;101484.59;5019904;28;20384;-42
2021/10/11 05:45:26;;;;;;;11.45;9.80;;;;;;;9.43;64.46;101481.97;5021538;28;20413;-42
2021/10/11 05:47:52;;;;;;;12.07;10.52;;;;;;;9.41;64.47;101481.09;5022304;28;20502;-42
2021/10/11 05:50:17;;;;;;;12.30;10.30;;;;;;;9.41;64.42;101484.63;5022580;28;20668;-43
2021/10/11 05:52:42;;;;;;;11.88;9.65;;;;;;;9.41;64.46;101489.91;5021241;28;20084;-43
2021/10/11 05:55:08;;;;;;;12.00;10.20;;;;;;;9.40;64.57;101482.84;5021348;28;20044;-42
2021/10/11 05:57:34;;;;;;;13.57;10.60;;;;;;;9.40;64.51;101493.38;5017891;28;20037;-42
2021/10/11 06:00:00;;;;;;;11.93;9.63;;;;;;;9.40;64.55;101487.25;5019338;28;20557;-42
2021/10/11 06:02:25;;;;;;;12.48;10.40;;;;;;;9.40;64.67;101498.63;5023764;28;20033;-42
2021/10/11 06:04:50;;;;;;;11.25;10.05;;;;;;;9.40;64.55;101489.88;5017629;28;20040;-41
2021/10/11 06:07:15;;;;;;;12.73;10.77;;;;;;;9.41;64.50;101494.25;5024895;28;21954;-42
2021/10/11 06:09:41;;;;;;;10.98;9.80;;;;;;;9.40;64.61;101484.59;5019004;28;20127;-42
2021/10/11 06:12:07;;;;;;;10.75;9.57;;;;;;;9.40;64.41;101492.50;5018997;28;20033;-42
2021/10/11 06:14:37;;;;;;;13.65;10.82;;;;;;;9.39;64.46;101482.81;5038698;23;20050;-90
2021/10/11 06:17:03;;;;;;;11.60;10.13;;;;;;;9.37;64.61;101490.72;5019147;28;20034;-90
2021/10/11 06:19:28;;;;;;;12.73;10.32;;;;;;;9.37;64.63;101488.97;5004008;28;20171;-89
2021/10/11 06:21:53;;;;;;;12.63;9.68;;;;;;;9.28;64.36;101466.94;5017931;28;20038;-90
2021/10/11 06:24:19;;;;;;;10.43;9.32;;;;;;;9.28;64.67;101459.03;4995578;28;20080;-90
2021/10/11 06:26:44;;;;;;;12.57;9.77;;;;;;;9.25;64.55;101449.38;5006855;28;20058;-90
2021/10/11 06:29:09;;;;;;;13.18;10.20;;;;;;;9.24;64.46;101460.78;5002500;28;20307;-90
2021/10/11 06:31:35;;;;;;;11.95;9.55;;;;;;;9.27;64.55;101471.31;5003916;28;20114;-90
2021/10/11 06:34:00;;;;;;;10.90;9.80;;;;;;;9.32;64.63;101480.16;5016037;28;20500;-91
2021/10/11 06:36:28;;;;;;;12.82;10.43;;;;;;;9.36;64.63;101481.94;5005013;28;20049;-89
2021/10/11 06:38:53;;;;;;;11.70;9.90;;;;;;;9.36;64.50;101487.22;5001785;28;20037;-91
2021/10/11 06:41:18;;;;;;;14.60;9.70;;;;;;;9.29;64.41;101474.84;5003697;28;20084;-91
2021/10/11 06:43:44;;;;;;;12.95;9.95;;;;;;;9.32;64.67;101495.94;4996932;28;20037;-89
2021/10/11 06:46:09;;;;;;;11.30;10.10;;;;;;;9.30;64.63;101494.19;5021267;28;20028;-89
2021/10/11 06:48:34;;;;;;;11.27;9.85;;;;;;;9.32;64.53;101500.31;5000402;28;20030;-88
2021/10/11 06:51:02;;;;;;;11.13;9.93;;;;;;;9.35;64.86;101511.78;5004446;28;20542;-91
2021/10/11 06:53:27;;;;;;;12.30;8.98;;;;;;;9.31;64.64;101509.09;5001625;28;20026;-90
2021/10/11 06:55:53;;;;;;;13.10;9.93;;;;;;;9.27;64.67;101492.38;4993757;28;20041;-89
2021/10/11 06:58:18;;;;;;;12.18;9.48;;;;;;;9.32;64.67;101501.22;5001371;28;20072;-89
2021/10/11 07:00:44;;;;;;;13.38;10.15;;;;;;;9.34;64.88;101510.00;5015967;28;20029;-89
2021/10/11 07:03:09;;;;;;;10.93;9.35;;;;;;;9.27;64.50;101500.28;5000491;28;20414;-89
2021/10/11 07:05:35;;;;;;;11.25;9.70;;;;;;;9.32;64.66;101509.13;4999741;28;20056;-90
2021/10/11 07:08:03;;;;;;;11.40;9.32;;;;;;;9.33;64.79;101510.88;4995018;28;20153;-89
2021/10/11 07:10:29;;;;;;;11.25;8.95;;;;;;;9.28;64.36;101501.16;5001002;28;20472;-90
2021/10/11 07:12:54;;;;;;;11.07;9.70;;;;;;;9.30;64.86;101497.66;5000712;28;20033;-89
2021/10/11 07:15:20;;;;;;;12.32;9.48;;;;;;;9.29;64.72;101508.19;4999044;28;20107;-89
2021/10/11 07:17:45;;;;;;;11.32;9.02;;;;;;;9.31;64.79;101509.97;4994838;28;20022;-89
2021/10/11 07:20:10;;;;;;;11.93;10.48;;;;;;;9.30;64.80;101513.47;4996204;28;20563;-89
2021/10/11 07:22:36;;;;;;;10.60;9.07;;;;;;;9.29;64.71;101511.72;4994080;28;20030;-89
2021/10/11 07:25:03;;;;;;;11.90;9.50;;;;;;;9.31;64.97;101509.09;4997875;28;20124;-89
2021/10/11 07:27:28;;;;;;;11.80;9.65;;;;;;;9.26;64.78;101506.41;4997915;28;20026;-89
2021/10/11 07:29:54;;;;;;;11.38;9.57;;;;;;;9.30;64.75;101505.56;4992932;28;20044;-89
2021/10/11 07:32:22;;;;;;;12.23;9.80;;;;;;;9.30;64.83;101513.47;4995879;28;20026;-90
2021/10/11 07:34:48;;;;;;;11.07;9.50;;;;;;;9.30;65.03;101513.47;4999410;28;20088;-89
2021/10/11 07:37:13;;;;;;;10.95;9.10;;;;;;;9.29;64.90;101516.09;5015087;28;20430;-89
2021/10/11 07:39:38;;;;;;;11.48;8.98;;;;;;;9.30;65.00;101516.09;4997989;28;20022;-89
2021/10/11 07:42:04;;;;;;;12.55;10.02;;;;;;;9.28;64.81;101515.22;4996779;28;20022;-90
2021/10/11 07:44:30;;;;;;;11.80;9.38;;;;;;;9.28;65.00;101512.59;4996463;28;20428;-89
2021/10/11 07:46:57;;;;;;;11.80;9.63;;;;;;;9.27;64.84;101510.81;4997980;28;20097;-90
2021/10/11 07:49:22;;;;;;;11.07;9.25;;;;;;;9.29;64.70;101511.72;4998691;28;20022;-90
2021/10/11 07:51:48;;;;;;;11.52;9.20;;;;;;;9.28;64.86;101515.22;4994982;28;20077;-90
2021/10/11 07:54:16;;;;;;;10.32;8.60;;;;;;;9.25;65.16;101509.91;5001051;28;20030;-89
2021/10/11 07:56:44;;;;;;;10.95;9.27;;;;;;;9.28;64.96;101515.22;5018797;28;20022;-90
2021/10/11 07:59:10;;;;;;;10.38;9.00;;;;;;;9.24;64.94;101516.06;5011923;28;20026;-89
2021/10/11 08:01:36;;;;;;;10.30;9.20;;;;;;;9.28;64.82;101531.00;4994960;28;20045;-89
2021/10/11 08:04:03;;;;;;;11.85;9.85;;;;;;;9.24;64.84;101526.59;5010136;28;20021;-89
2021/10/11 08:06:29;;;;;;;10.43;9.32;;;;;;;9.18;64.70;101516.88;4994991;28;20111;-90
2021/10/11 08:08:55;;;;;;;10.82;9.38;;;;;;;9.27;65.04;101534.50;4997017;28;20052;-89
2021/10/11 08:11:20;;;;;;;12.73;9.85;;;;;;;9.25;65.23;101533.59;4998648;28;20018;-90
2021/10/11 08:13:46;;;;;;;11.35;9.90;;;;;;;9.23;65.18;101528.31;4994420;28;20049;-90
2021/10/11 08:16:11;;;;;;;12.70;9.90;;;;;;;9.23;65.06;101536.22;4995194;28;20384;-89
2021/10/11 08:18:36;;;;;;;11.70;9.52;;;;;;;9.26;65.15;101535.38;5016142;28;20033;-90
2021/10/11 08:21:04;;;;;;;10.70;9.57;;;;;;;9.16;65.03;101521.22;4996929;28;20044;-90
2021/10/11 08:23:31;;;;;;;11.45;9.40;;;;;;;9.22;65.35;101530.94;4995216;28;20116;-90
2021/10/11 08:25:56;;;;;;;13.73;10.05;;;;;;;9.26;65.56;101532.72;4993777;28;20021;-89
2021/10/11 08:28:21;;;;;;;10.38;8.93;;;;;;;9.24;65.11;101530.09;4997559;28;20029;-89
2021/10/11 08:30:47;;;;;;;14.02;9.60;;;;;;;9.26;65.21;101526.56;4996439;28;20033;-89
2021/10/11 08:33:12;;;;;;;13.82;11.13;;;;;;;9.15;65.00;101513.31;4998445;28;20022;-89
2021/10/11 08:35:37;;;;;;;11.63;9.57;;;;;;;9.21;65.17;101529.19;4992179;28;20098;-89
2021/10/11 08:38:03;;;;;;;13.00;9.52;;;;;;;9.24;65.25;101530.09;4995494;28;20116;-90
2021/10/11 08:40:29;;;;;;;11.75;9.73;;;;;;;9.25;65.28;101528.34;4996452;28;20030;-89
2021/10/11 08:42:56;;;;;;;12.85;8.95;;;;;;;9.22;65.43;101525.69;4991607;28;20026;-89
2021/10/11 08:45:27;;;;;;;12.68;10.25;;;;;;;9.23;65.19;101528.31;4995933;28;20030;-90
2021/10/11 08:47:52;;;;;;;11.70;10.38;;;;;;;9.23;65.29;101533.59;4994311;28;20057;-90
2021/10/11 08:50:18;;;;;;;12.23;10.13;;;;;;;9.24;65.46;101523.97;4996314;28;20022;-90
2021/10/11 08:52:43;;;;;;;11.38;9.50;;;;;;;9.23;65.05;101522.16;4996946;28;20109;-90
2021/10/11 08:55:09;;;;;;;12.65;9.55;;;;;;;9.23;65.36;101516.91;4989719;28;20052;-89
2021/10/11 08:57:35;;;;;;;12.50;9.60;;;;;;;9.23;65.28;101527.44;5012465;28;20025;-88
2021/10/11 09:00:11;;;;;;;11.70;9.25;;;;;;;9.23;65.33;101527.44;5012994;28;20033;-90
2021/10/11 09:02:36;;;;;;;10.45;9.20;;;;;;;9.20;65.25;101528.28;4993864;28;20030;-89
2021/10/11 09:05:02;;;;;;;11.27;9.13;;;;;;;9.22;65.32;101530.94;4999872;28;20022;-90
2021/10/11 09:07:29;;;;;;;13.60;10.48;;;;;;;9.19;65.40;101541.44;5014247;28;20045;-90
2021/10/11 09:09:59;;;;;;;11.10;9.25;;;;;;;9.15;65.49;101524.75;5002094;28;20052;-90
2021/10/11 09:12:33;;;;;;;12.93;10.57;;;;;;;9.12;65.21;101516.81;4999484;28;20014;-89
2021/10/11 09:15:07;;;;;;;11.90;9.38;;;;;;;9.21;65.35;101523.91;5013139;28;20040;-90
2021/10/11 09:17:40;;;;;;;12.27;9.18;;;;;;;9.21;65.43;101521.28;4997790;28;20025;-90
2021/10/11 09:20:16;;;;;;;11.15;9.00;;;;;;;9.21;65.47;101526.56;5000005;28;20028;-88
2021/10/11 09:22:43;;;;;;;10.93;9.32;;;;;;;9.18;65.25;101529.16;4996132;28;20431;-88
2021/10/11 09:25:09;;;;;;;11.68;9.77;;;;;;;9.20;65.46;101538.81;5007274;28;20018;-88
2021/10/11 09:27:43;;;;;;;9.98;8.40;;;;;;;9.18;65.36;101526.50;4999338;28;20025;-88
2021/10/11 09:30:10;;;;;;;11.05;8.27;;;;;;;9.16;65.61;101525.59;5018889;28;20065;-88
2021/10/11 09:32:35;;;;;;;13.55;8.93;;;;;;;9.22;65.45;101536.22;4997954;28;20029;-88
2021/10/11 09:35:18;;;;;;;10.23;8.43;;;;;;;9.22;65.37;101528.31;4998599;28;20387;-88
2021/10/11 09:37:50;;;;;;;11.90;9.43;;;;;;;9.20;65.61;101525.66;5022246;28;20053;-91
2021/10/11 09:40:17;;;;;;;10.57;8.32;;;;;;;9.19;65.43;101529.16;5012205;28;20172;-89
2021/10/11 09:42:42;;;;;;;10.32;7.97;;;;;;;9.19;65.36;101530.91;4990633;28;20018;-90
2021/10/11 09:45:08;;;;;;;10.13;8.50;;;;;;;9.16;65.44;101526.50;4997485;28;20083;-89
2021/10/11 09:47:36;;;;;;;11.18;8.75;;;;;;;9.20;65.60;101528.28;4997972;28;20033;-89
2021/10/11 09:50:05;;;;;;;10.45;8.55;;;;;;;9.19;65.61;101521.28;4998366;28;20029;-89
2021/10/11 09:52:31;;;;;;;11.13;9.02;;;;;;;9.20;65.62;101535.28;5008739;28;20030;-91
2021/10/11 09:54:56;;;;;;;9.55;8.13;;;;;;;9.17;65.69;101532.66;4999328;28;20040;-91
2021/10/11 09:57:22;;;;;;;11.68;9.32;;;;;;;9.19;65.71;101536.16;4996492;28;20026;-89
2021/10/11 09:59:48;;;;;;;9.40;8.15;;;;;;;9.16;65.50;101517.69;4998172;28;20026;-90
2021/10/11 10:02:17;;;;;;;10.60;9.27;;;;;;;9.17;65.96;101522.13;4995875;28;20036;-89
2021/10/11 10:04:43;;;;;;;10.98;9.63;;;;;;;9.11;65.77;101510.66;4998799;28;20084;-89
2021/10/11 10:07:09;;;;;;;11.93;10.48;;;;;;;9.17;65.77;101516.88;4995909;28;20022;-89
2021/10/11 10:09:40;;;;;;;11.55;9.32;;;;;;;9.19;65.83;101537.06;4997565;28;20022;-90
2021/10/11 10:12:07;;;;;;;12.30;10.77;;;;;;;9.19;65.84;101536.16;4993122;28;20022;-89
2021/10/11 10:14:35;;;;;;;11.27;10.10;;;;;;;9.19;65.99;101533.53;4998554;28;20101;-89
2021/10/11 10:17:00;;;;;;;14.02;10.77;;;;;;;9.14;65.90;101522.09;4999169;28;20025;-89
2021/10/11 10:19:36;;;;;;;12.93;10.27;;;;;;;9.18;66.07;101526.50;4999783;28;20030;-91
2021/10/11 10:22:11;;;;;;;12.90;10.60;;;;;;;9.19;65.92;101523.91;4997048;28;20028;-90
2021/10/11 10:24:44;;;;;;;13.02;9.82;;;;;;;9.20;65.99;101530.91;5014478;28;20709;-91
2021/10/11 10:27:13;;;;;;;12.77;10.20;;;;;;;9.20;66.28;101522.13;5000172;28;20498;-90
2021/10/11 10:29:44;;;;;;;13.68;9.88;;;;;;;9.17;65.83;101515.09;4993768;28;20022;-91
2021/10/11 10:32:10;;;;;;;14.63;10.95;;;;;;;9.20;66.14;101519.50;4992838;28;20018;-90
2021/10/11 10:34:36;;;;;;;11.63;10.43;;;;;;;9.17;66.22;101514.22;4997972;28;20037;-90
2021/10/11 10:37:09;;;;;;;12.30;9.68;;;;;;;9.18;66.14;101518.63;4991442;28;20030;-90
2021/10/11 10:39:49;;;;;;;12.75;10.63;;;;;;;9.14;66.17;101508.94;4996244;28;20025;-90
2021/10/11 10:42:27;;;;;;;12.07;9.60;;;;;;;9.10;66.38;101493.09;5007491;28;20021;-91
2021/10/11 10:44:52;;;;;;;12.88;9.68;;;;;;;9.20;66.33;101501.06;4997677;28;20026;-91
2021/10/11 10:47:30;;;;;;;12.63;9.75;;;;;;;9.20;66.23;101506.34;4998658;28;20076;-90
2021/10/11 10:50:28;;;;;;;12.65;9.52;;;;;;;9.21;66.31;101502.88;5015319;28;20476;-91
2021/10/11 10:52:57;;;;;;;11.77;9.50;;;;;;;9.19;66.53;101494.94;4997940;28;20065;-91
2021/10/11 10:55:50;;;;;;;13.18;9.98;;;;;;;9.21;66.32;101495.81;4985701;28;20022;-92
2021/10/11 10:58:16;;;;;;;11.80;9.95;;;;;;;9.20;66.57;101491.44;4998089;28;20026;-92
2021/10/11 11:00:43;;;;;;;14.30;9.27;;;;;;;9.21;66.72;101497.59;4998789;28;20082;-91
2021/10/11 11:03:10;;;;;;;11.60;10.35;;;;;;;9.14;66.43;101480.84;4997315;28;20037;-90
2021/10/11 11:05:35;;;;;;;11.05;9.48;;;;;;;9.21;66.71;101498.47;4991653;28;20480;-89
2021/10/11 11:08:01;;;;;;;10.50;8.98;;;;;;;9.20;67.11;101490.53;4997566;28;20028;-89
2021/10/11 11:10:28;;;;;;;12.18;9.65;;;;;;;9.14;66.69;101479.97;4993281;28;20034;-90
2021/10/11 11:12:55;;;;;;;12.30;9.70;;;;;;;9.21;66.86;101495.81;5000631;28;20712;-90
2021/10/11 11:15:31;;;;;;;12.52;10.10;;;;;;;9.22;66.68;101487.09;5017253;28;20030;-89